Flight Track Log - Related Links

Times and Time Zones

All times are in EDT time to prevent confusion due to time zone crossing. See the N327SR flight status page for this flight to view local times or setup timezone preferences in your user account.

Time Position Orientation Groundspeed Altitude Reporting Facility
EDT Latitude Longitude Course Direction KTS MPH feet Rate Location/Type
Sun 04:37:00 PM 33.9676 -78.9442 310° West  Level Estimated
Sun 04:38:00 PM 33.9935 -78.9810 311° West  Level Estimated
Sun 04:39:00 PM 34.0195 -79.0177 310° West  Level FlightAware Approximate
Sun 04:40:00 PM 34.0454 -79.0545 310° West  Level FlightAware Approximate
Sun 04:41:00 PM 34.0713 -79.0914 310° West  Level FlightAware Approximate
Sun 04:42:00 PM 34.0973 -79.1282 310° West  Level FlightAware Approximate
Sun 04:43:00 PM 34.1232 -79.1651 310° West  Level FlightAware Approximate
Sun 04:44:00 PM 34.1491 -79.2020 310° West  Level FlightAware Approximate
Sun 04:45:00 PM 34.1749 -79.2389 310° West  Level FlightAware Approximate
Sun 04:46:00 PM 34.2008 -79.2758 310° West  Level FlightAware Approximate
Sun 04:47:00 PM 34.2267 -79.3128 310° West  Level FlightAware Approximate
Sun 04:48:00 PM 34.2525 -79.3498 310° West  Level FlightAware Approximate
Sun 04:49:00 PM 34.2784 -79.3868 310° West  Level FlightAware Approximate
Sun 04:50:00 PM 34.3042 -79.4238 310° West  Level FlightAware Approximate
Sun 04:51:00 PM 34.3300 -79.4608 310° West  Level FlightAware Approximate
Sun 04:52:00 PM 34.3558 -79.4979 310° West  Level FlightAware Approximate
Sun 04:53:00 PM 34.3816 -79.5350 310° West  Level FlightAware Approximate
Sun 04:54:00 PM 34.4074 -79.5721 310° West  Level FlightAware Approximate
Sun 04:55:00 PM 34.4332 -79.6093 310° West  Level FlightAware Approximate
Sun 04:56:00 PM 34.4589 -79.6464 310° West  Level FlightAware Approximate
Sun 04:57:00 PM 34.4847 -79.6836 310° West  Level FlightAware Approximate
Sun 04:58:00 PM 34.5104 -79.7208 310° West  Level FlightAware Approximate
Sun 04:59:00 PM 34.5361 -79.7581 310° West  Level FlightAware Approximate
Sun 05:00:00 PM 34.5619 -79.7953 310° West  Level FlightAware Approximate
Sun 05:01:00 PM 34.5876 -79.8326 310° West  Level FlightAware Approximate
Sun 05:02:00 PM 34.6132 -79.8699 310° West  Level FlightAware Approximate
Sun 05:03:00 PM 34.6389 -79.9072 310° West  Level FlightAware Approximate
Sun 05:04:00 PM 34.6646 -79.9446 310° West  Level FlightAware Approximate
Sun 05:05:00 PM 34.6902 -79.9820 309° West  Level Estimated
Sun 05:06:00 PM 34.7157 -80.0195 310° West  Level FlightAware Approximate
Sun 05:07:00 PM 34.7412 -80.0571 310° West  Level FlightAware Approximate
Sun 05:07:32 PM 34.7611 -80.0744 309° West 163 188 6,100  Level Atlanta Center
Sun 05:08:00 PM 34.7688 -80.0979 309° West  Level FlightAware Approximate
Sun 05:08:21 PM 34.7833 -80.1086 308° West 157 181 6,100  Level Atlanta Center
Sun 05:09:00 PM 34.7963 -80.1387 309° West  Level FlightAware Approximate
Sun 05:09:22 PM 34.8117 -80.1503 310° West 153 176 6,100  Level Atlanta Center
Sun 05:10:00 PM 34.8238 -80.1795 309° West  Level FlightAware Approximate
Sun 05:10:24 PM 34.8381 -80.1897 309° West 154 177 6,100  Level Atlanta Center
Sun 05:11:00 PM 34.8513 -80.2203 309° West  Level FlightAware Approximate
Sun 05:11:25 PM 34.8642 -80.2314 307° West 160 184 5,700  Level Atlanta Center
Sun 05:12:00 PM 34.8788 -80.2612 309° West  Level FlightAware Approximate
Sun 05:12:20 PM 34.8967 -80.2656 319° Northwest 169 194 5,300  Level Atlanta Center
Sun 05:13:21 PM 34.9311 -80.3044 317° Northwest 161 185 5,100 -179 Descending Atlanta Center
Sun 05:14:34 PM 34.9678 -80.3433 319° Northwest 146 168 4,900 -246 Descending Atlanta Center
Sun 05:15:23 PM 34.9958 -80.3725 320° Northwest 157 181 4,600 -436 Descending Atlanta Center
Sun 05:16:24 PM 35.0306 -80.4142 316° Northwest 172 198 4,100 -259 Descending Atlanta Center
Sun 05:17:19 PM 35.0608 -80.4508 315° West 167 192 4,100  Level Atlanta Center
Sun 05:18:26 PM 35.0975 -80.4925 317° Northwest 154 177 4,100  Level Atlanta Center
Sun 05:19:21 PM 35.1294 -80.5164 329° Northwest 153 176 4,100  Level Atlanta Center
Sun 05:20:15 PM 35.1614 -80.5431 326° Northwest 152 175 4,100  Level Atlanta Center
Sun 05:21:16 PM 35.1978 -80.5694 329° Northwest 151 174 4,100  Level Atlanta Center
Sun 05:22:23 PM 35.2361 -80.6008 326° Northwest 152 175 4,100  Level Atlanta Center
Sun 05:23:24 PM 35.2725 -80.6325 325° Northwest 149 171 4,100  Level Atlanta Center
Sun 05:24:25 PM 35.3089 -80.6614 327° Northwest 152 175 4,100  Level Atlanta Center
Sun 05:25:32 PM 35.3450 -80.6931 324° Northwest 154 177 4,100  Level Atlanta Center
Sun 05:26:33 PM 35.3569 -80.7411 287° West 150 173 4,100  Level Atlanta Center
Sun 05:27:34 PM 35.3933 -80.7778 321° Northwest 156 180 4,100  Level Atlanta Center
Sun 05:28:34 PM 35.4050 -80.8256 287° West 153 176 4,100 -99 Level Atlanta Center
Sun 05:29:35 PM 35.4189 -80.8786 288° West 157 181 3,900 -328 Descending Atlanta Center
Sun 05:30:42 PM 35.4350 -80.9417 287° West 173 199 3,400 -448 Descending Atlanta Center
Sun 05:32:00 PM 35.4449 -81.0062 281° West  Level FlightAware Approximate
Sun 05:39:00 PM 35.4667 -81.1500 285° West  Level FlightAware Approximate

Login

Don't have an account? Register now (free) for customized features, flight alerts, and more!